sensor_id;sensor_type;location;lat;lon;timestamp;P1;durP1;ratioP1;P2;durP2;ratioP2
35418;SDS011;21525;41.240;16.500;2023-04-05T00:01:23;5.93;;;3.38;;
35418;SDS011;21525;41.240;16.500;2023-04-05T00:03:56;11.77;;;3.60;;
35418;SDS011;21525;41.240;16.500;2023-04-05T00:06:26;9.88;;;3.80;;
35418;SDS011;21525;41.240;16.500;2023-04-05T00:09:00;7.28;;;3.55;;
35418;SDS011;21525;41.240;16.500;2023-04-05T00:11:28;9.68;;;3.47;;
35418;SDS011;21525;41.240;16.500;2023-04-05T00:13:58;11.73;;;4.38;;
35418;SDS011;21525;41.240;16.500;2023-04-05T00:16:25;9.25;;;3.40;;
35418;SDS011;21525;41.240;16.500;2023-04-05T00:18:52;5.97;;;3.53;;
35418;SDS011;21525;41.240;16.500;2023-04-05T00:21:19;6.18;;;3.50;;
35418;SDS011;21525;41.240;16.500;2023-04-05T00:23:46;5.95;;;3.78;;
35418;SDS011;21525;41.240;16.500;2023-04-05T00:26:13;10.18;;;3.78;;
35418;SDS011;21525;41.240;16.500;2023-04-05T00:28:45;10.05;;;3.60;;
35418;SDS011;21525;41.240;16.500;2023-04-05T00:31:12;9.50;;;3.47;;
35418;SDS011;21525;41.240;16.500;2023-04-05T00:33:38;12.35;;;4.10;;
35418;SDS011;21525;41.240;16.500;2023-04-05T00:36:07;9.80;;;3.92;;
35418;SDS011;21525;41.240;16.500;2023-04-05T00:38:43;9.35;;;3.97;;
35418;SDS011;21525;41.240;16.500;2023-04-05T00:41:10;8.32;;;3.40;;
35418;SDS011;21525;41.240;16.500;2023-04-05T00:43:38;10.77;;;3.60;;
35418;SDS011;21525;41.240;16.500;2023-04-05T00:46:05;10.63;;;4.13;;
35418;SDS011;21525;41.240;16.500;2023-04-05T00:48:32;9.30;;;3.50;;
35418;SDS011;21525;41.240;16.500;2023-04-05T00:50:59;7.18;;;3.60;;
35418;SDS011;21525;41.240;16.500;2023-04-05T00:53:25;9.45;;;3.65;;
35418;SDS011;21525;41.240;16.500;2023-04-05T00:55:52;8.63;;;3.50;;
35418;SDS011;21525;41.240;16.500;2023-04-05T00:58:18;9.27;;;4.05;;
35418;SDS011;21525;41.240;16.500;2023-04-05T01:03:17;7.40;;;3.97;;
35418;SDS011;21525;41.240;16.500;2023-04-05T01:05:46;7.45;;;3.90;;
35418;SDS011;21525;41.240;16.500;2023-04-05T01:11:20;9.48;;;3.85;;
35418;SDS011;21525;41.240;16.500;2023-04-05T01:13:48;12.27;;;4.20;;
35418;SDS011;21525;41.240;16.500;2023-04-05T01:16:14;10.38;;;4.25;;
35418;SDS011;21525;41.240;16.500;2023-04-05T01:18:40;8.27;;;3.55;;
35418;SDS011;21525;41.240;16.500;2023-04-05T01:34:49;11.48;;;3.83;;
35418;SDS011;21525;41.240;16.500;2023-04-05T01:37:19;8.48;;;3.85;;
35418;SDS011;21525;41.240;16.500;2023-04-05T01:39:48;9.32;;;4.10;;
35418;SDS011;21525;41.240;16.500;2023-04-05T01:42:15;9.27;;;3.53;;
35418;SDS011;21525;41.240;16.500;2023-04-05T01:44:47;9.20;;;3.97;;
35418;SDS011;21525;41.240;16.500;2023-04-05T01:47:13;7.60;;;3.90;;
35418;SDS011;21525;41.240;16.500;2023-04-05T01:49:39;8.82;;;3.83;;
35418;SDS011;21525;41.240;16.500;2023-04-05T01:52:05;7.88;;;3.90;;
35418;SDS011;21525;41.240;16.500;2023-04-05T01:54:31;13.45;;;5.50;;
35418;SDS011;21525;41.240;16.500;2023-04-05T01:56:57;14.35;;;8.13;;
35418;SDS011;21525;41.240;16.500;2023-04-05T01:59:23;11.07;;;5.80;;
35418;SDS011;21525;41.240;16.500;2023-04-05T02:01:49;12.43;;;6.30;;
35418;SDS011;21525;41.240;16.500;2023-04-05T02:04:16;8.85;;;4.68;;
35418;SDS011;21525;41.240;16.500;2023-04-05T02:06:42;8.30;;;5.60;;
35418;SDS011;21525;41.240;16.500;2023-04-05T02:09:09;8.65;;;4.70;;
35418;SDS011;21525;41.240;16.500;2023-04-05T02:11:36;8.35;;;6.68;;
35418;SDS011;21525;41.240;16.500;2023-04-05T02:14:01;11.90;;;6.22;;
35418;SDS011;21525;41.240;16.500;2023-04-05T02:16:28;11.50;;;7.13;;
35418;SDS011;21525;41.240;16.500;2023-04-05T02:18:57;11.63;;;7.75;;
35418;SDS011;21525;41.240;16.500;2023-04-05T02:21:24;20.80;;;13.57;;
35418;SDS011;21525;41.240;16.500;2023-04-05T02:23:54;24.70;;;12.52;;
35418;SDS011;21525;41.240;16.500;2023-04-05T02:26:20;18.13;;;9.02;;
35418;SDS011;21525;41.240;16.500;2023-04-05T02:28:46;11.90;;;6.30;;
35418;SDS011;21525;41.240;16.500;2023-04-05T02:31:12;10.00;;;5.78;;
35418;SDS011;21525;41.240;16.500;2023-04-05T02:33:41;12.88;;;7.03;;
35418;SDS011;21525;41.240;16.500;2023-04-05T02:36:07;16.20;;;9.57;;
35418;SDS011;21525;41.240;16.500;2023-04-05T02:38:35;11.60;;;7.28;;
35418;SDS011;21525;41.240;16.500;2023-04-05T02:41:01;11.70;;;6.85;;
35418;SDS011;21525;41.240;16.500;2023-04-05T02:43:29;13.05;;;8.27;;
35418;SDS011;21525;41.240;16.500;2023-04-05T02:45:55;17.58;;;9.23;;
35418;SDS011;21525;41.240;16.500;2023-04-05T02:48:21;11.23;;;5.68;;
35418;SDS011;21525;41.240;16.500;2023-04-05T02:50:50;9.75;;;4.82;;
35418;SDS011;21525;41.240;16.500;2023-04-05T02:53:17;9.32;;;4.47;;
35418;SDS011;21525;41.240;16.500;2023-04-05T02:55:53;11.70;;;5.18;;
35418;SDS011;21525;41.240;16.500;2023-04-05T02:58:21;9.80;;;4.05;;
35418;SDS011;21525;41.240;16.500;2023-04-05T03:00:48;9.40;;;4.90;;
35418;SDS011;21525;41.240;16.500;2023-04-05T03:03:25;7.55;;;4.20;;
35418;SDS011;21525;41.240;16.500;2023-04-05T03:05:59;7.13;;;4.28;;
35418;SDS011;21525;41.240;16.500;2023-04-05T03:08:39;8.73;;;3.92;;
35418;SDS011;21525;41.240;16.500;2023-04-05T03:11:12;14.05;;;5.57;;
35418;SDS011;21525;41.240;16.500;2023-04-05T03:13:41;8.63;;;5.50;;
35418;SDS011;21525;41.240;16.500;2023-04-05T03:16:14;7.82;;;4.40;;
35418;SDS011;21525;41.240;16.500;2023-04-05T03:18:41;12.73;;;4.57;;
35418;SDS011;21525;41.240;16.500;2023-04-05T03:21:09;10.07;;;4.97;;
35418;SDS011;21525;41.240;16.500;2023-04-05T03:23:40;8.48;;;4.45;;
35418;SDS011;21525;41.240;16.500;2023-04-05T03:26:08;10.13;;;4.90;;
35418;SDS011;21525;41.240;16.500;2023-04-05T03:28:37;10.15;;;4.28;;
35418;SDS011;21525;41.240;16.500;2023-04-05T03:31:05;8.68;;;4.45;;
35418;SDS011;21525;41.240;16.500;2023-04-05T03:33:31;8.10;;;4.57;;
35418;SDS011;21525;41.240;16.500;2023-04-05T03:35:58;6.90;;;4.28;;
35418;SDS011;21525;41.240;16.500;2023-04-05T03:38:23;10.35;;;4.60;;
35418;SDS011;21525;41.240;16.500;2023-04-05T03:41:03;10.90;;;5.22;;
35418;SDS011;21525;41.240;16.500;2023-04-05T03:43:29;9.48;;;5.15;;
35418;SDS011;21525;41.240;16.500;2023-04-05T03:45:55;15.30;;;6.22;;
35418;SDS011;21525;41.240;16.500;2023-04-05T03:48:22;10.98;;;5.30;;
35418;SDS011;21525;41.240;16.500;2023-04-05T03:50:48;9.30;;;4.45;;
35418;SDS011;21525;41.240;16.500;2023-04-05T03:53:14;13.02;;;4.57;;
35418;SDS011;21525;41.240;16.500;2023-04-05T03:55:46;12.95;;;4.95;;
35418;SDS011;21525;41.240;16.500;2023-04-05T03:58:17;7.97;;;4.55;;
35418;SDS011;21525;41.240;16.500;2023-04-05T04:00:43;10.00;;;4.22;;
35418;SDS011;21525;41.240;16.500;2023-04-05T04:03:14;11.07;;;4.47;;
35418;SDS011;21525;41.240;16.500;2023-04-05T04:05:44;11.50;;;5.00;;
35418;SDS011;21525;41.240;16.500;2023-04-05T04:08:11;19.17;;;6.20;;
35418;SDS011;21525;41.240;16.500;2023-04-05T04:10:37;9.47;;;5.00;;
35418;SDS011;21525;41.240;16.500;2023-04-05T04:13:12;12.05;;;6.22;;
35418;SDS011;21525;41.240;16.500;2023-04-05T04:15:38;10.38;;;5.30;;
35418;SDS011;21525;41.240;16.500;2023-04-05T04:18:16;15.35;;;6.15;;
35418;SDS011;21525;41.240;16.500;2023-04-05T04:21:14;8.88;;;4.47;;
35418;SDS011;21525;41.240;16.500;2023-04-05T04:24:20;8.10;;;4.57;;
35418;SDS011;21525;41.240;16.500;2023-04-05T04:26:48;9.27;;;4.57;;
35418;SDS011;21525;41.240;16.500;2023-04-05T04:29:35;12.32;;;5.28;;
35418;SDS011;21525;41.240;16.500;2023-04-05T04:32:22;10.13;;;4.30;;
35418;SDS011;21525;41.240;16.500;2023-04-05T04:37:56;8.63;;;4.10;;
35418;SDS011;21525;41.240;16.500;2023-04-05T04:40:38;11.10;;;5.97;;
35418;SDS011;21525;41.240;16.500;2023-04-05T04:43:31;10.80;;;4.55;;
35418;SDS011;21525;41.240;16.500;2023-04-05T04:46:12;11.82;;;5.68;;
35418;SDS011;21525;41.240;16.500;2023-04-05T04:48:58;10.95;;;5.05;;
35418;SDS011;21525;41.240;16.500;2023-04-05T04:51:33;13.60;;;4.97;;
35418;SDS011;21525;41.240;16.500;2023-04-05T04:54:01;18.30;;;6.32;;
35418;SDS011;21525;41.240;16.500;2023-04-05T04:56:27;10.25;;;5.13;;
35418;SDS011;21525;41.240;16.500;2023-04-05T04:58:55;11.77;;;4.60;;
35418;SDS011;21525;41.240;16.500;2023-04-05T05:01:21;9.15;;;4.78;;
35418;SDS011;21525;41.240;16.500;2023-04-05T05:03:49;9.68;;;4.93;;
35418;SDS011;21525;41.240;16.500;2023-04-05T05:06:25;9.60;;;4.60;;
35418;SDS011;21525;41.240;16.500;2023-04-05T05:08:51;16.00;;;4.80;;
35418;SDS011;21525;41.240;16.500;2023-04-05T05:11:17;10.38;;;4.68;;
35418;SDS011;21525;41.240;16.500;2023-04-05T05:13:43;10.98;;;4.28;;
35418;SDS011;21525;41.240;16.500;2023-04-05T05:16:15;13.98;;;4.60;;
35418;SDS011;21525;41.240;16.500;2023-04-05T05:18:42;14.38;;;4.68;;
35418;SDS011;21525;41.240;16.500;2023-04-05T05:21:12;15.15;;;5.00;;
35418;SDS011;21525;41.240;16.500;2023-04-05T05:23:38;10.00;;;4.88;;
35418;SDS011;21525;41.240;16.500;2023-04-05T05:26:04;10.25;;;5.07;;
35418;SDS011;21525;41.240;16.500;2023-04-05T05:28:30;14.90;;;5.30;;
35418;SDS011;21525;41.240;16.500;2023-04-05T05:30:56;14.20;;;5.72;;
35418;SDS011;21525;41.240;16.500;2023-04-05T05:33:21;12.25;;;5.50;;
35418;SDS011;21525;41.240;16.500;2023-04-05T05:35:48;11.82;;;5.13;;
35418;SDS011;21525;41.240;16.500;2023-04-05T05:38:16;16.33;;;4.88;;
35418;SDS011;21525;41.240;16.500;2023-04-05T05:40:42;9.25;;;4.15;;
35418;SDS011;21525;41.240;16.500;2023-04-05T05:43:08;15.13;;;4.90;;
35418;SDS011;21525;41.240;16.500;2023-04-05T05:45:35;9.32;;;5.18;;
35418;SDS011;21525;41.240;16.500;2023-04-05T05:48:01;15.23;;;5.25;;
35418;SDS011;21525;41.240;16.500;2023-04-05T05:50:26;13.68;;;5.30;;
35418;SDS011;21525;41.240;16.500;2023-04-05T05:52:57;10.38;;;4.93;;
35418;SDS011;21525;41.240;16.500;2023-04-05T05:55:23;14.18;;;5.97;;
35418;SDS011;21525;41.240;16.500;2023-04-05T05:57:49;12.95;;;6.07;;
35418;SDS011;21525;41.240;16.500;2023-04-05T06:00:17;16.15;;;5.90;;
35418;SDS011;21525;41.240;16.500;2023-04-05T06:02:44;12.90;;;6.30;;
35418;SDS011;21525;41.240;16.500;2023-04-05T06:05:10;19.27;;;7.35;;
35418;SDS011;21525;41.240;16.500;2023-04-05T06:07:37;13.80;;;6.20;;
35418;SDS011;21525;41.240;16.500;2023-04-05T06:10:03;14.73;;;5.10;;
35418;SDS011;21525;41.240;16.500;2023-04-05T06:12:29;17.13;;;5.18;;
35418;SDS011;21525;41.240;16.500;2023-04-05T06:14:55;15.65;;;5.95;;
35418;SDS011;21525;41.240;16.500;2023-04-05T06:17:21;14.52;;;5.63;;
35418;SDS011;21525;41.240;16.500;2023-04-05T06:19:47;14.85;;;6.88;;
35418;SDS011;21525;41.240;16.500;2023-04-05T06:22:12;11.07;;;5.95;;
35418;SDS011;21525;41.240;16.500;2023-04-05T06:24:38;12.38;;;5.07;;
35418;SDS011;21525;41.240;16.500;2023-04-05T06:27:04;13.02;;;5.90;;
35418;SDS011;21525;41.240;16.500;2023-04-05T06:29:29;9.85;;;5.00;;
35418;SDS011;21525;41.240;16.500;2023-04-05T06:31:55;16.02;;;5.40;;
35418;SDS011;21525;41.240;16.500;2023-04-05T06:34:21;19.77;;;6.30;;
35418;SDS011;21525;41.240;16.500;2023-04-05T06:36:47;12.77;;;5.80;;
35418;SDS011;21525;41.240;16.500;2023-04-05T06:39:13;20.60;;;6.90;;
35418;SDS011;21525;41.240;16.500;2023-04-05T06:41:39;15.80;;;6.18;;
35418;SDS011;21525;41.240;16.500;2023-04-05T06:44:05;13.73;;;5.30;;
35418;SDS011;21525;41.240;16.500;2023-04-05T06:46:30;9.38;;;4.50;;
35418;SDS011;21525;41.240;16.500;2023-04-05T06:48:57;7.88;;;4.50;;
35418;SDS011;21525;41.240;16.500;2023-04-05T06:51:23;11.20;;;4.93;;
35418;SDS011;21525;41.240;16.500;2023-04-05T06:53:50;17.67;;;5.53;;
35418;SDS011;21525;41.240;16.500;2023-04-05T06:56:16;14.25;;;4.40;;
35418;SDS011;21525;41.240;16.500;2023-04-05T06:58:42;14.95;;;4.68;;
35418;SDS011;21525;41.240;16.500;2023-04-05T07:01:08;12.52;;;4.85;;
35418;SDS011;21525;41.240;16.500;2023-04-05T07:03:34;16.27;;;5.25;;
35418;SDS011;21525;41.240;16.500;2023-04-05T07:05:59;15.52;;;5.70;;
35418;SDS011;21525;41.240;16.500;2023-04-05T07:08:26;17.25;;;5.88;;
35418;SDS011;21525;41.240;16.500;2023-04-05T07:10:52;15.68;;;6.68;;
35418;SDS011;21525;41.240;16.500;2023-04-05T07:13:19;16.13;;;6.22;;
35418;SDS011;21525;41.240;16.500;2023-04-05T07:15:46;10.43;;;5.90;;
35418;SDS011;21525;41.240;16.500;2023-04-05T07:18:12;8.82;;;5.28;;
35418;SDS011;21525;41.240;16.500;2023-04-05T07:20:41;14.70;;;6.25;;
35418;SDS011;21525;41.240;16.500;2023-04-05T07:23:07;12.48;;;6.32;;
35418;SDS011;21525;41.240;16.500;2023-04-05T07:25:33;9.82;;;5.35;;
35418;SDS011;21525;41.240;16.500;2023-04-05T07:27:58;16.20;;;5.30;;
35418;SDS011;21525;41.240;16.500;2023-04-05T07:30:25;13.75;;;5.28;;
35418;SDS011;21525;41.240;16.500;2023-04-05T07:32:51;16.65;;;5.05;;
35418;SDS011;21525;41.240;16.500;2023-04-05T07:35:17;13.27;;;5.57;;
35418;SDS011;21525;41.240;16.500;2023-04-05T07:37:42;12.50;;;5.25;;
35418;SDS011;21525;41.240;16.500;2023-04-05T07:40:11;17.75;;;7.15;;
35418;SDS011;21525;41.240;16.500;2023-04-05T07:42:37;21.73;;;11.73;;
35418;SDS011;21525;41.240;16.500;2023-04-05T07:45:03;22.92;;;12.85;;
35418;SDS011;21525;41.240;16.500;2023-04-05T07:47:31;22.40;;;8.55;;
35418;SDS011;21525;41.240;16.500;2023-04-05T07:52:24;9.52;;;5.93;;
35418;SDS011;21525;41.240;16.500;2023-04-05T07:54:50;9.43;;;5.47;;
35418;SDS011;21525;41.240;16.500;2023-04-05T07:57:16;10.10;;;5.57;;
35418;SDS011;21525;41.240;16.500;2023-04-05T07:59:43;9.88;;;4.60;;
35418;SDS011;21525;41.240;16.500;2023-04-05T08:02:09;9.82;;;4.63;;
35418;SDS011;21525;41.240;16.500;2023-04-05T08:04:35;9.15;;;4.85;;
35418;SDS011;21525;41.240;16.500;2023-04-05T08:07:01;11.23;;;4.95;;
35418;SDS011;21525;41.240;16.500;2023-04-05T08:09:27;9.82;;;4.40;;
35418;SDS011;21525;41.240;16.500;2023-04-05T08:11:52;10.27;;;5.10;;
35418;SDS011;21525;41.240;16.500;2023-04-05T08:14:18;9.43;;;4.18;;
35418;SDS011;21525;41.240;16.500;2023-04-05T08:16:44;8.77;;;3.75;;
35418;SDS011;21525;41.240;16.500;2023-04-05T08:19:10;7.60;;;3.53;;
35418;SDS011;21525;41.240;16.500;2023-04-05T08:21:35;6.28;;;2.75;;
35418;SDS011;21525;41.240;16.500;2023-04-05T08:24:02;9.57;;;3.28;;
35418;SDS011;21525;41.240;16.500;2023-04-05T08:26:29;7.63;;;3.42;;
35418;SDS011;21525;41.240;16.500;2023-04-05T08:28:54;8.00;;;3.33;;
35418;SDS011;21525;41.240;16.500;2023-04-05T08:31:20;5.78;;;3.10;;
35418;SDS011;21525;41.240;16.500;2023-04-05T08:33:46;6.90;;;3.88;;
35418;SDS011;21525;41.240;16.500;2023-04-05T08:36:12;15.70;;;4.15;;
35418;SDS011;21525;41.240;16.500;2023-04-05T08:38:37;17.15;;;4.55;;
35418;SDS011;21525;41.240;16.500;2023-04-05T08:41:07;7.00;;;3.05;;
35418;SDS011;21525;41.240;16.500;2023-04-05T08:46:13;8.65;;;3.72;;
35418;SDS011;21525;41.240;16.500;2023-04-05T08:48:41;8.00;;;3.35;;
35418;SDS011;21525;41.240;16.500;2023-04-05T08:51:06;8.35;;;2.47;;
35418;SDS011;21525;41.240;16.500;2023-04-05T08:53:36;4.50;;;2.75;;
35418;SDS011;21525;41.240;16.500;2023-04-05T08:56:03;6.25;;;2.83;;
35418;SDS011;21525;41.240;16.500;2023-04-05T08:58:30;7.78;;;3.08;;
35418;SDS011;21525;41.240;16.500;2023-04-05T09:00:59;7.65;;;4.13;;
35418;SDS011;21525;41.240;16.500;2023-04-05T09:03:30;6.75;;;2.90;;
35418;SDS011;21525;41.240;16.500;2023-04-05T09:06:01;8.35;;;3.50;;
35418;SDS011;21525;41.240;16.500;2023-04-05T09:08:34;6.35;;;3.17;;
35418;SDS011;21525;41.240;16.500;2023-04-05T09:11:00;5.20;;;3.00;;
35418;SDS011;21525;41.240;16.500;2023-04-05T09:13:26;8.40;;;4.30;;
35418;SDS011;21525;41.240;16.500;2023-04-05T09:15:51;9.65;;;3.75;;
35418;SDS011;21525;41.240;16.500;2023-04-05T09:18:19;10.18;;;4.10;;
35418;SDS011;21525;41.240;16.500;2023-04-05T09:20:45;8.95;;;2.97;;
35418;SDS011;21525;41.240;16.500;2023-04-05T09:23:11;9.05;;;3.00;;
35418;SDS011;21525;41.240;16.500;2023-04-05T09:25:37;10.68;;;6.63;;
35418;SDS011;21525;41.240;16.500;2023-04-05T09:28:05;7.95;;;3.05;;
35418;SDS011;21525;41.240;16.500;2023-04-05T09:30:31;6.68;;;2.80;;
35418;SDS011;21525;41.240;16.500;2023-04-05T09:35:26;7.05;;;3.08;;
35418;SDS011;21525;41.240;16.500;2023-04-05T09:37:59;8.90;;;3.33;;
35418;SDS011;21525;41.240;16.500;2023-04-05T09:40:43;9.32;;;3.22;;
35418;SDS011;21525;41.240;16.500;2023-04-05T09:43:35;9.27;;;2.97;;
35418;SDS011;21525;41.240;16.500;2023-04-05T09:46:01;6.63;;;2.75;;
35418;SDS011;21525;41.240;16.500;2023-04-05T09:48:46;5.00;;;3.00;;
35418;SDS011;21525;41.240;16.500;2023-04-05T09:51:16;10.10;;;3.15;;
35418;SDS011;21525;41.240;16.500;2023-04-05T09:53:55;5.32;;;2.50;;
35418;SDS011;21525;41.240;16.500;2023-04-05T09:56:22;7.68;;;3.20;;
35418;SDS011;21525;41.240;16.500;2023-04-05T09:58:49;7.28;;;2.80;;
35418;SDS011;21525;41.240;16.500;2023-04-05T10:01:16;5.23;;;2.60;;
35418;SDS011;21525;41.240;16.500;2023-04-05T10:03:45;7.53;;;3.28;;
35418;SDS011;21525;41.240;16.500;2023-04-05T10:06:12;10.85;;;2.80;;
35418;SDS011;21525;41.240;16.500;2023-04-05T10:08:40;7.72;;;3.55;;
35418;SDS011;21525;41.240;16.500;2023-04-05T10:11:05;4.10;;;2.42;;
35418;SDS011;21525;41.240;16.500;2023-04-05T10:13:31;7.05;;;3.88;;
35418;SDS011;21525;41.240;16.500;2023-04-05T10:15:59;4.13;;;3.13;;
35418;SDS011;21525;41.240;16.500;2023-04-05T10:18:29;10.25;;;3.50;;
35418;SDS011;21525;41.240;16.500;2023-04-05T10:21:06;9.40;;;3.13;;
35418;SDS011;21525;41.240;16.500;2023-04-05T10:23:35;9.63;;;2.90;;
35418;SDS011;21525;41.240;16.500;2023-04-05T10:26:10;7.05;;;3.00;;
35418;SDS011;21525;41.240;16.500;2023-04-05T10:28:46;8.85;;;3.10;;
35418;SDS011;21525;41.240;16.500;2023-04-05T10:34:28;9.95;;;3.65;;
35418;SDS011;21525;41.240;16.500;2023-04-05T10:40:38;4.70;;;2.80;;
35418;SDS011;21525;41.240;16.500;2023-04-05T10:43:14;7.22;;;3.13;;
35418;SDS011;21525;41.240;16.500;2023-04-05T10:45:45;5.93;;;3.40;;
35418;SDS011;21525;41.240;16.500;2023-04-05T10:51:13;5.50;;;2.45;;
35418;SDS011;21525;41.240;16.500;2023-04-05T10:53:40;7.30;;;3.08;;
35418;SDS011;21525;41.240;16.500;2023-04-05T10:56:05;5.88;;;2.80;;
35418;SDS011;21525;41.240;16.500;2023-04-05T10:58:33;5.18;;;2.90;;
35418;SDS011;21525;41.240;16.500;2023-04-05T11:01:00;5.30;;;2.78;;
35418;SDS011;21525;41.240;16.500;2023-04-05T11:11:30;6.40;;;3.63;;
35418;SDS011;21525;41.240;16.500;2023-04-05T11:14:16;21.77;;;4.95;;
35418;SDS011;21525;41.240;16.500;2023-04-05T11:16:47;6.88;;;3.20;;
35418;SDS011;21525;41.240;16.500;2023-04-05T11:19:15;8.45;;;3.78;;
35418;SDS011;21525;41.240;16.500;2023-04-05T11:21:42;6.63;;;3.28;;
35418;SDS011;21525;41.240;16.500;2023-04-05T11:24:11;8.00;;;2.90;;
35418;SDS011;21525;41.240;16.500;2023-04-05T11:29:07;6.30;;;3.53;;
35418;SDS011;21525;41.240;16.500;2023-04-05T11:31:33;6.10;;;2.60;;
35418;SDS011;21525;41.240;16.500;2023-04-05T11:33:59;5.07;;;3.17;;
35418;SDS011;21525;41.240;16.500;2023-04-05T11:36:44;8.40;;;3.60;;
35418;SDS011;21525;41.240;16.500;2023-04-05T11:44:18;5.22;;;3.70;;
35418;SDS011;21525;41.240;16.500;2023-04-05T11:46:45;7.57;;;2.92;;
35418;SDS011;21525;41.240;16.500;2023-04-05T11:49:11;6.05;;;3.03;;
35418;SDS011;21525;41.240;16.500;2023-04-05T11:51:41;5.53;;;3.03;;
35418;SDS011;21525;41.240;16.500;2023-04-05T11:54:08;5.28;;;2.85;;
35418;SDS011;21525;41.240;16.500;2023-04-05T11:56:34;5.60;;;3.20;;
35418;SDS011;21525;41.240;16.500;2023-04-05T11:58:59;6.68;;;2.95;;
35418;SDS011;21525;41.240;16.500;2023-04-05T12:01:26;6.95;;;3.25;;
35418;SDS011;21525;41.240;16.500;2023-04-05T12:03:55;7.88;;;2.67;;
35418;SDS011;21525;41.240;16.500;2023-04-05T12:06:22;6.78;;;2.80;;
35418;SDS011;21525;41.240;16.500;2023-04-05T12:08:48;4.95;;;2.70;;
35418;SDS011;21525;41.240;16.500;2023-04-05T12:11:23;5.28;;;3.00;;
35418;SDS011;21525;41.240;16.500;2023-04-05T12:13:53;8.27;;;3.22;;
35418;SDS011;21525;41.240;16.500;2023-04-05T12:16:20;9.90;;;4.60;;
35418;SDS011;21525;41.240;16.500;2023-04-05T12:18:51;7.78;;;3.20;;
35418;SDS011;21525;41.240;16.500;2023-04-05T12:21:18;7.35;;;3.78;;
35418;SDS011;21525;41.240;16.500;2023-04-05T12:23:44;6.20;;;2.58;;
35418;SDS011;21525;41.240;16.500;2023-04-05T12:26:11;4.82;;;2.70;;
35418;SDS011;21525;41.240;16.500;2023-04-05T12:28:53;6.55;;;3.08;;
35418;SDS011;21525;41.240;16.500;2023-04-05T12:34:06;6.30;;;2.53;;
35418;SDS011;21525;41.240;16.500;2023-04-05T12:36:33;6.80;;;2.88;;
35418;SDS011;21525;41.240;16.500;2023-04-05T12:38:59;5.95;;;3.20;;
35418;SDS011;21525;41.240;16.500;2023-04-05T12:41:30;5.50;;;3.15;;
35418;SDS011;21525;41.240;16.500;2023-04-05T12:43:58;5.70;;;2.90;;
35418;SDS011;21525;41.240;16.500;2023-04-05T12:46:39;7.63;;;3.15;;
35418;SDS011;21525;41.240;16.500;2023-04-05T12:49:09;6.22;;;2.90;;
35418;SDS011;21525;41.240;16.500;2023-04-05T12:51:36;5.93;;;3.00;;
35418;SDS011;21525;41.240;16.500;2023-04-05T12:54:07;5.60;;;2.90;;
35418;SDS011;21525;41.240;16.500;2023-04-05T12:56:32;5.80;;;2.83;;
35418;SDS011;21525;41.240;16.500;2023-04-05T12:58:58;7.60;;;3.10;;
35418;SDS011;21525;41.240;16.500;2023-04-05T13:01:24;4.18;;;3.03;;
35418;SDS011;21525;41.240;16.500;2023-04-05T13:03:50;4.65;;;3.00;;
35418;SDS011;21525;41.240;16.500;2023-04-05T13:06:17;5.03;;;2.60;;
35418;SDS011;21525;41.240;16.500;2023-04-05T13:08:42;5.78;;;3.63;;
35418;SDS011;21525;41.240;16.500;2023-04-05T13:11:08;3.75;;;2.75;;
35418;SDS011;21525;41.240;16.500;2023-04-05T13:13:34;4.70;;;2.78;;
35418;SDS011;21525;41.240;16.500;2023-04-05T13:15:59;5.80;;;3.15;;
35418;SDS011;21525;41.240;16.500;2023-04-05T13:18:25;7.20;;;3.42;;
35418;SDS011;21525;41.240;16.500;2023-04-05T13:20:51;3.97;;;2.97;;
35418;SDS011;21525;41.240;16.500;2023-04-05T13:23:17;6.07;;;3.20;;
35418;SDS011;21525;41.240;16.500;2023-04-05T13:25:43;4.00;;;2.70;;
35418;SDS011;21525;41.240;16.500;2023-04-05T13:30:37;5.32;;;2.90;;
35418;SDS011;21525;41.240;16.500;2023-04-05T13:33:03;3.97;;;3.00;;
35418;SDS011;21525;41.240;16.500;2023-04-05T13:35:29;4.05;;;2.97;;
35418;SDS011;21525;41.240;16.500;2023-04-05T13:37:55;5.95;;;3.13;;
35418;SDS011;21525;41.240;16.500;2023-04-05T13:40:21;4.72;;;2.70;;
35418;SDS011;21525;41.240;16.500;2023-04-05T13:42:46;6.00;;;3.50;;
35418;SDS011;21525;41.240;16.500;2023-04-05T13:45:13;7.68;;;3.20;;
35418;SDS011;21525;41.240;16.500;2023-04-05T13:47:39;6.07;;;3.00;;
35418;SDS011;21525;41.240;16.500;2023-04-05T13:50:05;4.65;;;2.80;;
35418;SDS011;21525;41.240;16.500;2023-04-05T13:52:31;5.93;;;2.90;;
35418;SDS011;21525;41.240;16.500;2023-04-05T13:54:57;4.80;;;2.80;;
35418;SDS011;21525;41.240;16.500;2023-04-05T13:57:22;4.18;;;2.83;;
35418;SDS011;21525;41.240;16.500;2023-04-05T13:59:48;5.82;;;2.92;;
35418;SDS011;21525;41.240;16.500;2023-04-05T14:02:14;4.35;;;3.10;;
35418;SDS011;21525;41.240;16.500;2023-04-05T14:04:44;4.97;;;2.95;;
35418;SDS011;21525;41.240;16.500;2023-04-05T14:07:10;4.60;;;2.97;;
35418;SDS011;21525;41.240;16.500;2023-04-05T14:09:37;4.75;;;2.65;;
35418;SDS011;21525;41.240;16.500;2023-04-05T14:12:03;4.00;;;2.75;;
35418;SDS011;21525;41.240;16.500;2023-04-05T14:14:29;4.80;;;2.75;;
35418;SDS011;21525;41.240;16.500;2023-04-05T14:16:54;4.28;;;2.85;;
35418;SDS011;21525;41.240;16.500;2023-04-05T14:19:20;5.18;;;2.67;;
35418;SDS011;21525;41.240;16.500;2023-04-05T14:21:46;6.63;;;3.15;;
35418;SDS011;21525;41.240;16.500;2023-04-05T14:24:12;7.13;;;3.58;;
35418;SDS011;21525;41.240;16.500;2023-04-05T14:26:38;4.85;;;3.10;;
35418;SDS011;21525;41.240;16.500;2023-04-05T14:29:05;4.28;;;2.75;;
35418;SDS011;21525;41.240;16.500;2023-04-05T14:31:31;5.30;;;3.15;;
35418;SDS011;21525;41.240;16.500;2023-04-05T14:33:57;4.65;;;3.58;;
35418;SDS011;21525;41.240;16.500;2023-04-05T14:36:23;4.70;;;2.97;;
35418;SDS011;21525;41.240;16.500;2023-04-05T14:38:51;6.47;;;3.22;;
35418;SDS011;21525;41.240;16.500;2023-04-05T14:41:16;4.38;;;2.90;;
35418;SDS011;21525;41.240;16.500;2023-04-05T14:43:43;3.47;;;2.85;;
35418;SDS011;21525;41.240;16.500;2023-04-05T14:46:09;5.03;;;3.50;;
35418;SDS011;21525;41.240;16.500;2023-04-05T14:48:35;5.40;;;3.50;;
35418;SDS011;21525;41.240;16.500;2023-04-05T14:51:02;4.32;;;2.90;;
35418;SDS011;21525;41.240;16.500;2023-04-05T14:53:28;6.80;;;3.10;;
35418;SDS011;21525;41.240;16.500;2023-04-05T14:55:54;8.18;;;3.53;;
35418;SDS011;21525;41.240;16.500;2023-04-05T14:58:20;3.50;;;3.00;;
35418;SDS011;21525;41.240;16.500;2023-04-05T15:00:46;5.57;;;3.30;;
35418;SDS011;21525;41.240;16.500;2023-04-05T15:03:16;4.00;;;3.08;;
35418;SDS011;21525;41.240;16.500;2023-04-05T15:05:44;5.50;;;3.58;;
35418;SDS011;21525;41.240;16.500;2023-04-05T15:08:11;3.53;;;2.55;;
35418;SDS011;21525;41.240;16.500;2023-04-05T15:10:37;7.63;;;3.20;;
35418;SDS011;21525;41.240;16.500;2023-04-05T15:13:03;3.78;;;2.95;;
35418;SDS011;21525;41.240;16.500;2023-04-05T15:15:29;6.85;;;3.60;;
35418;SDS011;21525;41.240;16.500;2023-04-05T15:17:55;6.20;;;3.85;;
35418;SDS011;21525;41.240;16.500;2023-04-05T15:20:21;4.53;;;2.80;;
35418;SDS011;21525;41.240;16.500;2023-04-05T15:22:47;4.60;;;3.08;;
35418;SDS011;21525;41.240;16.500;2023-04-05T15:25:13;4.30;;;3.05;;
35418;SDS011;21525;41.240;16.500;2023-04-05T15:27:38;6.85;;;3.67;;
35418;SDS011;21525;41.240;16.500;2023-04-05T15:30:04;6.95;;;3.38;;
35418;SDS011;21525;41.240;16.500;2023-04-05T15:32:31;3.40;;;2.90;;
35418;SDS011;21525;41.240;16.500;2023-04-05T15:35:01;4.13;;;3.17;;
35418;SDS011;21525;41.240;16.500;2023-04-05T15:37:27;3.90;;;3.10;;